»·PEaware :: N29239 KOXR-KIFP

N29239 :: KOXR-KIFP

FLIGHT INFORMATION

Flight Status: Arrived
Operator: Privately registered:
United States
More flights under this callsign
Pilot: Evan M. (27470)
Aircraft: CESSNA 208 CARAVAN
(C208)
More flights by this aircraft type
Origin: KOXR Oxnard
United States
Destination: KIFP Laughlin/Bullhead Intl
United States
More flights between these airports :: More routes between these airports
Route: FIM V386 PMD V12 HEC V8 GFS
File this flight plan on PilotEdge
Remarks:
Altitude:
(Current/Filed)
14,000ft
Speed:
(Current/Filed)
150kts
Departed: 28-Jan-21 05:55 PM
Arrived: 28-Jan-21 07:50 PM
Distance/Time
Traveled:
6828nm/1:55
Distance/Time
To Go:
Arrived

Flight Plot

Page will automatically refresh every two minutes.

Flight plan parsing failed; only flown route is shown


Map Options




Map Legend


Flown Route
Filed Route
Departure Airport
Arrival Airport
Navaid (VOR, NDB)
Fix

Horizontal Profiles

Position Reports

Time Latitude Longitude Heading Altitude Ground
Speed
28-Jan-21 17:34 34.199227 -119.205355 174 50ft 0kts
28-Jan-21 17:35 34.199227 -119.205355 174 50ft 0kts
28-Jan-21 17:36 34.199227 -119.205355 174 50ft 0kts
28-Jan-21 17:37 34.199227 -119.205355 174 50ft 0kts
28-Jan-21 17:38 34.199227 -119.205355 174 50ft 0kts
28-Jan-21 17:39 34.199227 -119.205355 174 50ft 0kts
28-Jan-21 17:40 34.199227 -119.205355 174 50ft 0kts
28-Jan-21 17:41 34.199227 -119.205355 174 50ft 0kts
28-Jan-21 17:42 34.199227 -119.205355 174 50ft 0kts
28-Jan-21 17:43 34.199227 -119.205355 174 50ft 0kts
28-Jan-21 17:44 34.199227 -119.205355 174 50ft 0kts
28-Jan-21 17:45 34.199227 -119.205355 174 50ft 0kts
28-Jan-21 17:46 34.199227 -119.205355 174 50ft 0kts
28-Jan-21 17:47 34.199227 -119.205355 174 50ft 0kts
28-Jan-21 17:48 34.199226 -119.205355 173 50ft 0kts
28-Jan-21 17:49 34.199225 -119.205354 171 50ft 0kts
28-Jan-21 17:50 34.199255 -119.205358 171 50ft 3kts
28-Jan-21 17:51 34.199689 -119.206982 285 50ft 22kts
28-Jan-21 17:52 34.199916 -119.216701 284 39ft 11kts
28-Jan-21 17:53 34.200609 -119.216997 7 39ft 13kts
28-Jan-21 17:54 34.200852 -119.211371 94 44ft 72kts
28-Jan-21 17:55 34.202652 -119.187192 84 1089ft 70kts
28-Jan-21 17:56 34.206770 -119.159851 82 1934ft 92kts
28-Jan-21 17:57 34.211033 -119.128172 82 2858ft 96kts
28-Jan-21 17:58 34.216094 -119.095892 81 3767ft 100kts
28-Jan-21 17:59 34.221843 -119.057306 82 3992ft 128kts
28-Jan-21 18:00 34.228299 -119.014282 78 4062ft 128kts
28-Jan-21 18:01 34.237402 -118.978772 42 4991ft 109kts
28-Jan-21 18:02 34.268217 -118.973160 11 5838ft 114kts
28-Jan-21 18:03 34.299497 -118.964763 20 6671ft 115kts
28-Jan-21 18:04 34.324510 -118.941080 50 7491ft 121kts
28-Jan-21 18:05 34.344227 -118.908559 80 7957ft 132kts
28-Jan-21 18:06 34.362191 -118.865942 77 7911ft 137kts
28-Jan-21 18:07 34.374441 -118.828493 81 8405ft 117kts
28-Jan-21 18:08 34.388275 -118.789100 81 9425ft 128kts
28-Jan-21 18:09 34.401548 -118.748523 84 10439ft 135kts
28-Jan-21 18:10 34.416600 -118.705321 84 11747ft 143kts
28-Jan-21 18:11 34.432092 -118.658527 83 12816ft 166kts
28-Jan-21 18:12 34.452701 -118.598952 78 13008ft 208kts
28-Jan-21 18:13 34.474953 -118.531933 76 13004ft 218kts
28-Jan-21 18:14 34.497616 -118.464304 77 13006ft 217kts
28-Jan-21 18:15 34.520695 -118.395927 77 13025ft 221kts
28-Jan-21 18:16 34.542962 -118.330148 80 14026ft 174kts
28-Jan-21 18:17 34.561274 -118.273570 76 15011ft 208kts
28-Jan-21 18:18 34.584408 -118.205007 78 14961ft 220kts
28-Jan-21 18:19 34.607790 -118.135222 77 14984ft 225kts
28-Jan-21 18:20 34.629183 -118.064009 86 14985ft 221kts
28-Jan-21 18:21 34.639301 -117.991130 95 14986ft 217kts
28-Jan-21 18:22 34.647542 -117.917769 93 14982ft 219kts
28-Jan-21 18:23 34.655300 -117.844576 92 15009ft 219kts
28-Jan-21 18:24 34.662921 -117.773675 94 15208ft 212kts
28-Jan-21 18:25 34.670803 -117.701857 94 15216ft 215kts
28-Jan-21 18:26 34.678431 -117.629843 93 15208ft 214kts
28-Jan-21 18:27 34.686042 -117.557862 93 15232ft 216kts
28-Jan-21 18:28 34.693718 -117.485652 93 15205ft 214kts
28-Jan-21 18:29 34.701381 -117.413102 93 15013ft 213kts
28-Jan-21 18:30 34.708646 -117.342612 93 14996ft 208kts
28-Jan-21 18:31 34.715960 -117.272502 93 15005ft 209kts
28-Jan-21 18:32 34.723155 -117.202771 93 14994ft 206kts
28-Jan-21 18:33 34.730031 -117.135414 94 15173ft 201kts
28-Jan-21 18:34 34.737141 -117.066854 93 15198ft 206kts
28-Jan-21 18:35 34.744183 -116.996193 91 14886ft 216kts
28-Jan-21 18:36 34.751332 -116.925724 92 14789ft 209kts
28-Jan-21 18:37 34.751332 -116.925724 92 14789ft 209kts
28-Jan-21 18:38 34.751332 -116.925724 92 14789ft 209kts
28-Jan-21 18:39 34.751332 -116.925724 92 14789ft 209kts
28-Jan-21 18:40 34.751332 -116.925724 92 14789ft 209kts
28-Jan-21 18:41 34.751332 -116.925724 92 14789ft 209kts
28-Jan-21 18:43 34.751332 -116.925724 92 14789ft 209kts
28-Jan-21 18:44 34.751332 -116.925724 92 14789ft 209kts
28-Jan-21 18:45 34.751332 -116.925724 92 14789ft 209kts
28-Jan-21 18:46 34.751332 -116.925724 92 14789ft 209kts
28-Jan-21 18:47 34.751332 -116.925724 92 14789ft 209kts
28-Jan-21 18:48 34.751332 -116.925724 92 14789ft 209kts
28-Jan-21 18:49 34.751332 -116.925724 92 14789ft 209kts
28-Jan-21 18:50 34.751332 -116.925724 92 14789ft 209kts
28-Jan-21 18:51 34.751332 -116.925724 92 14789ft 209kts
28-Jan-21 18:52 34.751332 -116.925724 92 14789ft 209kts
28-Jan-21 18:53 34.751332 -116.925724 92 14789ft 209kts
28-Jan-21 18:54 34.751332 -116.925724 92 14789ft 209kts
28-Jan-21 18:55 34.751332 -116.925724 92 14789ft 209kts
28-Jan-21 18:56 34.751332 -116.925724 92 14789ft 209kts
28-Jan-21 18:57 34.751332 -116.925724 92 14789ft 209kts
28-Jan-21 18:57 34.751332 -116.925724 92 14789ft 209kts
28-Jan-21 18:59 34.751332 -116.925724 92 14789ft 209kts
28-Jan-21 18:59 34.751332 -116.925724 92 14789ft 209kts
28-Jan-21 19:01 34.751332 -116.925724 92 14789ft 209kts
28-Jan-21 19:01 34.751332 -116.925724 92 14789ft 209kts
28-Jan-21 19:02 34.751332 -116.925724 92 14789ft 209kts
28-Jan-21 19:03 34.751332 -116.925724 92 14789ft 209kts
28-Jan-21 19:04 34.751457 -116.924492 92 14788ft 207kts
28-Jan-21 19:05 34.758627 -116.854563 94 14745ft 206kts
28-Jan-21 19:06 34.765619 -116.784941 92 14742ft 205kts
28-Jan-21 19:07 34.771942 -116.717879 94 14922ft 196kts
28-Jan-21 19:08 34.778918 -116.649454 92 14991ft 209kts
28-Jan-21 19:09 34.785833 -116.577968 92 14997ft 214kts
28-Jan-21 19:10 34.792899 -116.505406 92 15002ft 216kts
28-Jan-21 19:11 34.804785 -116.432565 79 15006ft 224kts
28-Jan-21 19:12 34.824394 -116.360134 80 15018ft 226kts
28-Jan-21 19:13 34.843675 -116.287296 79 14990ft 225kts
28-Jan-21 19:14 34.862680 -116.214865 79 15000ft 224kts
28-Jan-21 19:15 34.881784 -116.142381 79 15000ft 224kts
28-Jan-21 19:16 34.900855 -116.069930 79 15009ft 225kts
28-Jan-21 19:17 34.919275 -115.999149 80 15212ft 217kts
28-Jan-21 19:18 34.937962 -115.928041 79 15272ft 223kts
28-Jan-21 19:19 34.956611 -115.856510 80 15231ft 215kts
28-Jan-21 19:20 34.974517 -115.787208 80 15249ft 214kts
28-Jan-21 19:21 34.992538 -115.717733 80 15249ft 215kts
28-Jan-21 19:22 35.010460 -115.648424 80 15242ft 213kts
28-Jan-21 19:23 35.028298 -115.579238 80 15242ft 213kts
28-Jan-21 19:24 35.045992 -115.510345 80 15232ft 211kts
28-Jan-21 19:25 35.063534 -115.441806 80 15250ft 210kts
28-Jan-21 19:26 35.081166 -115.373056 80 15255ft 212kts
28-Jan-21 19:27 35.098665 -115.304268 80 15252ft 212kts
28-Jan-21 19:28 35.116122 -115.235638 80 15246ft 211kts
28-Jan-21 19:29 35.130758 -115.167066 90 15249ft 206kts
28-Jan-21 19:30 35.134088 -115.098256 97 15253ft 202kts
28-Jan-21 19:31 35.137134 -115.029441 97 15255ft 202kts
28-Jan-21 19:32 35.139744 -114.960545 97 15247ft 203kts
28-Jan-21 19:33 35.142465 -114.890115 96 14214ft 199kts
28-Jan-21 19:34 35.144755 -114.825579 96 12031ft 186kts
28-Jan-21 19:35 35.147246 -114.762849 94 9124ft 181kts
28-Jan-21 19:36 35.149313 -114.709764 92 7912ft 140kts
28-Jan-21 19:37 35.150932 -114.662728 91 7854ft 135kts
28-Jan-21 19:38 35.152459 -114.618385 93 7995ft 131kts
28-Jan-21 19:39 35.166030 -114.579272 18 7996ft 143kts
28-Jan-21 19:40 35.209202 -114.581983 354 6748ft 160kts
28-Jan-21 19:41 35.252006 -114.588213 353 4931ft 151kts
28-Jan-21 19:42 35.292787 -114.597351 338 3119ft 148kts
28-Jan-21 19:43 35.289869 -114.583701 151 3294ft 107kts
28-Jan-21 19:44 35.261998 -114.570926 164 3304ft 109kts
28-Jan-21 19:45 35.232309 -114.565312 177 2521ft 106kts
28-Jan-21 19:46 35.203473 -114.563071 176 1705ft 100kts
28-Jan-21 19:47 35.177216 -114.561064 175 1010ft 82kts
28-Jan-21 19:48 35.158072 -114.559562 177 661ft 44kts
28-Jan-21 19:49 35.155967 -114.558348 82 669ft 0kts
28-Jan-21 19:50 35.156740 -114.558103 351 666ft 22kts
28-Jan-21 19:51 35.162828 -114.557542 147 645ft 10kts
28-Jan-21 19:52 35.159925 -114.556386 92 655ft 0kts
28-Jan-21 19:53 0.000000 0.000000 0 0ft 0kts

Navigation Log

Ident Type
Flight plan parsing failed, navigation log unavailable